Immokalee, Florida
Current Conditions -  °F | °C
As of 10:53 AM on Monday 26 Jan 2015 (Local Time) from KRSW Reporting Station
Overcast Overcast  
Wind Chill: 67°   Ceiling: 3700
Heat Index: 67°   Visibility: 10mi
Dew Point: 55°   Wind: 13mph
Humidity: 66%   Direction: 310°NW
Pressure: 29.96"   Gusts: 20mph
Location:  26.42°N, 81.42°W
Report Text: KRSW 261553Z 31011G17KT 10SM FEW029 BKN037 OVC047 19/13 A2996 RMK AO2 SLP144 T01940128
Loading
Personal Weather Stations






























Interactive Weather Map New forecast layout! Learn more

10-Day Weather Forecast

Advertisements
Track Severe Weather on mobile